Time;durP1;ratioP1;P1;durP2;ratioP2;P2;SDS_P1;SDS_P2;PMS_P1;PMS_P2;Temp;Humidity;BMP_temperature;BMP_pressure;BME280_temperature;BME280_humidity;BME280_pressure;Samples;Min_cycle;Max_cycle;Signal;HPM_P1;HPM_P2
2022/08/18 00:02:26;;;;;;;28.83;25.17;;;20.40;99.90;;;;;;5020338;28;20360;-51
2022/08/18 00:04:56;;;;;;;26.40;23.63;;;20.50;99.90;;;;;;5018111;28;20238;-50
2022/08/18 00:07:30;;;;;;;29.33;25.73;;;20.50;99.90;;;;;;5022756;28;20212;-50
2022/08/18 00:09:58;;;;;;;28.43;24.80;;;20.50;99.90;;;;;;5022264;28;20219;-50
2022/08/18 00:12:33;;;;;;;32.23;27.00;;;20.40;99.90;;;;;;5022456;28;20652;-49
2022/08/18 00:15:03;;;;;;;28.27;25.17;;;20.40;99.90;;;;;;5022023;28;20200;-51
2022/08/18 00:17:32;;;;;;;30.77;26.67;;;20.50;99.90;;;;;;5021919;28;20211;-50
2022/08/18 00:19:59;;;;;;;27.80;24.80;;;20.40;99.90;;;;;;5022509;28;20291;-50
2022/08/18 00:22:26;;;;;;;29.60;25.00;;;20.20;99.90;;;;;;5021910;28;20212;-50
2022/08/18 00:24:56;;;;;;;28.70;25.50;;;20.30;99.90;;;;;;5021970;28;20644;-49
2022/08/18 00:27:25;;;;;;;30.73;26.13;;;20.20;99.90;;;;;;5022258;28;20204;-50
2022/08/18 00:29:56;;;;;;;27.93;24.97;;;20.20;99.90;;;;;;5021886;28;20213;-50
2022/08/18 00:32:32;;;;;;;27.30;24.37;;;20.30;99.90;;;;;;5020791;28;20217;-49
2022/08/18 00:35:17;;;;;;;28.70;24.50;;;20.20;99.90;;;;;;5022173;28;20200;-50
2022/08/18 00:37:44;;;;;;;28.23;25.17;;;20.10;99.90;;;;;;5022486;28;20291;-50
2022/08/18 00:40:16;;;;;;;29.70;26.50;;;20.00;99.90;;;;;;5021554;28;20216;-51
2022/08/18 00:42:50;;;;;;;31.97;26.27;;;20.00;99.90;;;;;;5021143;28;20283;-50
2022/08/18 00:45:27;;;;;;;30.17;25.40;;;19.90;99.90;;;;;;5021900;28;20719;-50
2022/08/18 00:47:54;;;;;;;32.23;26.03;;;19.70;99.90;;;;;;5021260;28;20296;-49
2022/08/18 00:50:30;;;;;;;29.53;24.90;;;19.80;99.90;;;;;;5021239;28;20278;-50
2022/08/18 00:53:03;;;;;;;31.60;25.57;;;19.70;99.90;;;;;;5021046;28;20303;-50
2022/08/18 00:55:32;;;;;;;28.27;23.43;;;19.50;99.90;;;;;;5020535;28;20222;-49
2022/08/18 00:58:08;;;;;;;30.50;23.43;;;19.40;99.90;;;;;;5016070;28;20208;-50
2022/08/18 01:00:36;;;;;;;27.03;23.80;;;19.30;99.90;;;;;;5019720;28;20236;-52
2022/08/18 01:03:11;;;;;;;27.63;23.33;;;19.30;99.90;;;;;;5020935;28;20264;-50
2022/08/18 01:05:44;;;;;;;25.97;23.20;;;19.20;99.90;;;;;;5020530;28;20247;-51
2022/08/18 01:08:15;;;;;;;32.83;24.40;;;19.10;99.90;;;;;;5019369;28;20209;-49
2022/08/18 01:10:54;;;;;;;27.53;23.47;;;19.10;99.90;;;;;;5021442;28;20325;-49
2022/08/18 01:13:26;;;;;;;27.43;22.93;;;19.10;99.90;;;;;;5020396;28;20201;-51
2022/08/18 01:15:53;;;;;;;29.30;23.07;;;19.10;99.90;;;;;;5021369;28;20247;-51
2022/08/18 01:24:08;;;;;;;26.70;22.37;;;19.10;99.90;;;;;;5020313;28;20208;-49
2022/08/18 01:26:39;;;;;;;30.90;23.50;;;19.20;99.90;;;;;;5020255;28;20209;-50
2022/08/18 01:29:11;;;;;;;27.73;23.33;;;19.20;99.90;;;;;;5021693;28;20217;-50
2022/08/18 01:31:53;;;;;;;27.47;22.17;;;19.30;99.90;;;;;;5020422;28;20716;-50
2022/08/18 01:34:24;;;;;;;31.33;24.27;;;19.30;99.90;;;;;;5020698;28;20284;-50
2022/08/18 01:36:52;;;;;;;29.67;23.37;;;19.30;99.90;;;;;;5015384;28;20259;-49
2022/08/18 01:39:21;;;;;;;27.97;23.73;;;19.30;99.90;;;;;;5021463;28;20254;-49
2022/08/18 01:42:08;;;;;;;29.43;23.17;;;19.30;99.90;;;;;;5020381;28;20675;-49
2022/08/18 01:44:35;;;;;;;27.90;22.47;;;19.30;99.90;;;;;;5021511;28;20215;-50
2022/08/18 01:47:02;;;;;;;27.63;22.10;;;19.30;99.90;;;;;;5020710;28;20236;-51
2022/08/18 01:49:29;;;;;;;28.37;23.90;;;19.40;99.90;;;;;;5020264;28;20578;-50
2022/08/18 01:51:56;;;;;;;26.10;22.67;;;19.40;99.90;;;;;;5020205;28;20222;-50
2022/08/18 01:54:23;;;;;;;29.80;22.87;;;19.50;99.90;;;;;;5036077;28;20267;-51
2022/08/18 01:56:52;;;;;;;27.77;23.93;;;19.50;99.90;;;;;;5019999;28;20266;-51
2022/08/18 01:59:19;;;;;;;27.10;22.83;;;19.60;99.90;;;;;;5020684;28;20200;-51
2022/08/18 02:01:46;;;;;;;26.30;22.43;;;19.70;99.90;;;;;;5018932;28;20237;-50
2022/08/18 02:04:26;;;;;;;24.33;21.27;;;19.60;99.90;;;;;;5020063;28;20229;-50
2022/08/18 02:07:05;;;;;;;30.10;22.80;;;19.70;99.90;;;;;;5020702;28;20200;-51
2022/08/18 02:09:33;;;;;;;24.87;21.20;;;19.60;99.90;;;;;;5020158;28;20204;-51
2022/08/18 02:12:00;;;;;;;25.33;21.10;;;19.80;99.90;;;;;;5019528;28;20316;-51
2022/08/18 02:14:28;;;;;;;26.83;22.13;;;19.80;99.90;;;;;;5018990;28;20243;-51
2022/08/18 02:16:58;;;;;;;24.83;21.30;;;19.80;99.90;;;;;;5019267;28;20205;-51
2022/08/18 02:19:41;;;;;;;27.83;21.70;;;19.80;99.90;;;;;;5019588;28;20201;-51
2022/08/18 02:22:09;;;;;;;25.63;21.00;;;19.80;99.90;;;;;;5018218;28;20238;-50
2022/08/18 02:24:37;;;;;;;26.10;21.00;;;19.80;99.90;;;;;;5017571;28;20264;-51
2022/08/18 02:27:05;;;;;;;24.13;21.07;;;19.70;99.90;;;;;;5019992;28;20215;-51
2022/08/18 02:29:32;;;;;;;28.63;21.23;;;19.80;99.90;;;;;;5020818;28;20208;-50
2022/08/18 02:31:58;;;;;;;25.53;21.73;;;19.80;99.90;;;;;;5019532;28;20312;-49
2022/08/18 02:34:25;;;;;;;25.63;21.70;;;19.80;99.90;;;;;;5019295;28;20315;-50
2022/08/18 02:36:53;;;;;;;22.63;20.27;;;19.80;99.90;;;;;;5019451;28;20240;-50
2022/08/18 02:39:20;;;;;;;24.53;20.47;;;19.70;99.90;;;;;;5019391;28;20236;-51
2022/08/18 02:41:47;;;;;;;24.23;20.93;;;19.60;99.90;;;;;;5019340;28;20272;-50
2022/08/18 02:44:14;;;;;;;24.20;20.77;;;19.60;99.90;;;;;;5019566;28;20299;-50
2022/08/18 02:46:40;;;;;;;23.13;20.73;;;19.70;99.90;;;;;;5018817;28;20212;-51
2022/08/18 02:49:08;;;;;;;24.63;20.40;;;19.70;99.90;;;;;;5018750;28;20213;-51
2022/08/18 02:51:35;;;;;;;24.53;21.33;;;19.60;99.90;;;;;;5018856;28;20240;-51
2022/08/18 02:54:07;;;;;;;27.67;21.17;;;19.60;99.90;;;;;;5019155;28;20688;-50
2022/08/18 02:56:35;;;;;;;26.00;22.37;;;19.70;99.90;;;;;;5016234;28;20200;-49
2022/08/18 02:59:14;;;;;;;26.73;21.70;;;19.80;99.90;;;;;;5019230;28;20328;-49
2022/08/18 03:01:44;;;;;;;25.53;21.73;;;19.70;99.90;;;;;;5017609;28;20244;-50
2022/08/18 03:04:14;;;;;;;24.20;20.57;;;19.70;99.90;;;;;;5019710;28;20204;-50
2022/08/18 03:06:42;;;;;;;27.53;22.13;;;19.70;99.90;;;;;;5016002;28;20263;-51
2022/08/18 03:09:12;;;;;;;26.63;23.10;;;19.70;99.90;;;;;;5019330;28;20686;-49
2022/08/18 03:11:39;;;;;;;26.10;21.67;;;19.70;99.90;;;;;;5019161;28;20260;-49
2022/08/18 03:14:09;;;;;;;28.23;22.20;;;19.80;99.90;;;;;;5019725;28;20205;-49
2022/08/18 03:16:42;;;;;;;37.07;23.27;;;19.80;99.90;;;;;;5019011;28;20208;-49
2022/08/18 03:19:27;;;;;;;26.57;23.60;;;19.90;99.90;;;;;;5019326;28;20209;-51
2022/08/18 03:21:57;;;;;;;29.47;24.23;;;19.80;99.90;;;;;;5013287;28;20247;-50
2022/08/18 03:24:27;;;;;;;28.50;24.90;;;19.70;99.90;;;;;;5021272;28;20213;-48
2022/08/18 03:26:58;;;;;;;27.70;23.80;;;19.60;99.90;;;;;;5017474;28;20693;-50
2022/08/18 03:29:25;;;;;;;32.00;24.50;;;19.40;99.90;;;;;;5022493;28;20209;-50
2022/08/18 03:31:57;;;;;;;29.37;23.37;;;19.30;99.90;;;;;;5022760;28;20600;-50
2022/08/18 03:34:24;;;;;;;31.17;23.80;;;19.40;99.90;;;;;;5022494;28;20205;-50
2022/08/18 03:36:51;;;;;;;27.60;23.83;;;19.40;99.90;;;;;;5018218;28;20209;-49
2022/08/18 03:39:19;;;;;;;29.77;24.33;;;19.30;99.90;;;;;;5021992;28;20232;-50
2022/08/18 03:41:46;;;;;;;27.83;23.73;;;19.30;99.90;;;;;;5018231;28;20251;-51
2022/08/18 03:44:31;;;;;;;30.43;24.73;;;19.30;99.90;;;;;;5022980;28;20576;-53
2022/08/18 03:47:00;;;;;;;28.30;24.07;;;19.40;99.90;;;;;;5019099;28;20579;-52
2022/08/18 03:49:27;;;;;;;29.60;22.07;;;19.30;99.90;;;;;;5021917;28;20343;-52
2022/08/18 03:51:54;;;;;;;30.83;21.80;;;19.10;99.90;;;;;;5022960;28;20216;-49
2022/08/18 03:54:21;;;;;;;27.30;23.13;;;18.80;99.90;;;;;;5023199;28;20224;-51
2022/08/18 03:56:48;;;;;;;26.43;21.77;;;18.80;99.90;;;;;;5021705;28;20232;-50
2022/08/18 03:59:18;;;;;;;26.70;22.87;;;18.90;99.90;;;;;;5022738;28;20233;-51
2022/08/18 04:01:47;;;;;;;26.57;22.67;;;18.90;99.90;;;;;;5022346;28;20249;-52
2022/08/18 04:04:18;;;;;;;29.77;23.77;;;18.90;99.90;;;;;;5017153;28;20291;-52
2022/08/18 04:06:56;;;;;;;30.73;23.33;;;18.80;99.90;;;;;;5022215;28;20259;-49
2022/08/18 04:09:25;;;;;;;27.87;22.77;;;18.80;99.90;;;;;;5022220;28;20625;-51
2022/08/18 04:11:52;;;;;;;29.23;23.70;;;18.90;99.90;;;;;;5022634;28;20648;-51
2022/08/18 04:14:25;;;;;;;27.17;22.83;;;18.90;99.90;;;;;;5022612;28;20198;-51
2022/08/18 04:16:52;;;;;;;29.53;23.80;;;18.80;99.90;;;;;;5021574;28;20205;-51
2022/08/18 04:19:19;;;;;;;30.77;22.47;;;18.80;99.90;;;;;;5022162;28;20684;-52
2022/08/18 04:21:55;;;;;;;28.93;22.40;;;18.80;99.90;;;;;;5022107;28;20204;-50
2022/08/18 04:24:36;;;;;;;28.27;23.10;;;18.90;99.90;;;;;;5021046;28;20677;-50
2022/08/18 04:27:06;;;;;;;28.13;22.80;;;18.70;99.90;;;;;;5022259;28;20244;-51
2022/08/18 04:29:33;;;;;;;26.80;21.83;;;18.50;99.90;;;;;;5022298;28;20386;-51
2022/08/18 04:32:03;;;;;;;27.23;21.93;;;18.70;99.90;;;;;;5019329;28;20300;-52
2022/08/18 04:34:32;;;;;;;27.23;21.90;;;18.90;99.90;;;;;;5020675;28;20751;-51
2022/08/18 04:37:01;;;;;;;24.67;20.23;;;18.90;99.90;;;;;;5021337;28;20255;-50
2022/08/18 04:39:29;;;;;;;25.90;20.20;;;18.70;99.90;;;;;;5021197;28;20206;-49
2022/08/18 04:41:58;;;;;;;28.60;22.60;;;18.80;99.90;;;;;;5021420;28;20212;-51
2022/08/18 04:44:24;;;;;;;25.97;22.80;;;18.70;99.90;;;;;;5021583;28;20234;-51
2022/08/18 04:46:53;;;;;;;25.83;21.40;;;18.80;99.90;;;;;;5018581;28;20232;-50
2022/08/18 04:49:24;;;;;;;27.23;22.43;;;18.90;99.90;;;;;;5022629;28;20259;-51
2022/08/18 04:55:00;;;;;;;26.90;21.30;;;19.00;99.90;;;;;;5021419;28;20239;-50
2022/08/18 04:57:27;;;;;;;31.03;23.20;;;19.10;99.90;;;;;;5021032;28;20197;-50
2022/08/18 04:59:59;;;;;;;29.73;22.80;;;19.10;99.90;;;;;;5021513;28;20745;-51
2022/08/18 05:02:26;;;;;;;29.03;23.00;;;19.10;99.90;;;;;;5020537;28;20244;-50
2022/08/18 05:04:53;;;;;;;30.13;23.23;;;19.20;99.90;;;;;;5017990;28;20259;-50
2022/08/18 05:07:24;;;;;;;26.53;21.80;;;19.20;99.90;;;;;;5014679;28;20209;-51
2022/08/18 05:09:53;;;;;;;24.67;21.53;;;19.30;99.90;;;;;;5021212;28;20443;-50
2022/08/18 05:12:21;;;;;;;29.13;21.17;;;19.30;99.90;;;;;;5020646;28;20225;-50
2022/08/18 05:14:53;;;;;;;29.33;20.07;;;19.30;99.90;;;;;;5020729;28;20197;-50
2022/08/18 05:17:20;;;;;;;24.73;21.23;;;19.10;99.90;;;;;;5020605;28;20571;-51
2022/08/18 05:19:47;;;;;;;24.80;20.37;;;19.20;99.90;;;;;;5019505;28;20715;-50
2022/08/18 05:22:18;;;;;;;26.60;19.97;;;19.30;99.90;;;;;;5017087;28;20201;-51
2022/08/18 05:24:54;;;;;;;28.03;19.97;;;19.40;99.90;;;;;;5021170;28;20263;-50
2022/08/18 05:27:21;;;;;;;23.60;19.73;;;19.40;99.90;;;;;;5020738;28;20236;-49
2022/08/18 05:29:48;;;;;;;22.87;19.37;;;19.40;99.90;;;;;;5020506;28;20683;-50
2022/08/18 05:32:17;;;;;;;23.43;18.43;;;19.30;99.90;;;;;;5019702;28;20221;-50
2022/08/18 05:35:20;;;;;;;24.27;19.10;;;19.30;99.90;;;;;;5021130;28;20204;-49
2022/08/18 05:38:25;;;;;;;24.57;20.27;;;19.20;99.90;;;;;;5021280;28;20231;-49
2022/08/18 05:41:18;;;;;;;23.10;18.13;;;19.30;99.90;;;;;;5020209;28;20205;-50
2022/08/18 05:43:47;;;;;;;23.50;19.07;;;19.50;99.90;;;;;;5019920;28;20205;-50
2022/08/18 05:46:20;;;;;;;28.17;19.57;;;19.40;99.90;;;;;;5020611;28;20278;-50
2022/08/18 05:48:48;;;;;;;22.60;18.97;;;19.40;99.90;;;;;;5021178;28;20209;-50
2022/08/18 05:51:24;;;;;;;23.30;18.57;;;19.40;99.90;;;;;;5014357;28;20229;-50
2022/08/18 05:56:47;;;;;;;25.63;18.10;;;19.50;99.90;;;;;;5020405;28;20676;-49
2022/08/18 05:59:27;;;;;;;23.20;17.83;;;19.50;99.90;;;;;;5019721;28;20212;-51
2022/08/18 06:02:26;;;;;;;19.50;16.37;;;19.60;99.90;;;;;;5010752;28;20240;-50
2022/08/18 06:05:00;;;;;;;21.53;18.43;;;19.70;99.90;;;;;;5011912;28;20645;-49
2022/08/18 06:07:36;;;;;;;19.90;15.87;;;19.70;99.90;;;;;;5020371;28;20201;-49
2022/08/18 06:10:06;;;;;;;18.50;15.60;;;19.80;99.90;;;;;;5020219;28;20250;-50
2022/08/18 06:12:40;;;;;;;20.23;16.27;;;19.80;99.90;;;;;;5019841;28;20263;-49
2022/08/18 06:15:33;;;;;;;22.30;16.87;;;19.90;99.90;;;;;;5020282;28;20577;-50
2022/08/18 06:18:26;;;;;;;19.93;17.23;;;19.70;99.90;;;;;;5019682;28;20216;-50
2022/08/18 06:21:26;;;;;;;21.63;17.27;;;19.60;99.90;;;;;;5020374;28;20669;-49
2022/08/18 06:24:09;;;;;;;21.40;16.67;;;19.50;99.90;;;;;;5019621;28;20212;-50
2022/08/18 06:26:55;;;;;;;19.83;17.47;;;19.50;99.90;;;;;;5020212;28;20212;-49
2022/08/18 06:29:32;;;;;;;24.60;18.00;;;19.40;99.90;;;;;;5019475;28;20575;-50
2022/08/18 06:32:44;;;;;;;19.50;17.23;;;19.30;99.90;;;;;;5014250;28;20677;-50
2022/08/18 06:35:22;;;;;;;20.50;17.33;;;19.40;99.90;;;;;;5009024;28;20266;-49
2022/08/18 06:41:07;;;;;;;21.40;17.87;;;19.40;99.90;;;;;;5019715;28;20206;-50
2022/08/18 06:43:56;;;;;;;22.03;18.60;;;19.50;99.90;;;;;;5019791;28;20209;-50
2022/08/18 06:46:32;;;;;;;23.97;18.07;;;19.70;99.90;;;;;;5018465;28;20239;-50
2022/08/18 06:49:04;;;;;;;24.70;17.97;;;19.80;99.90;;;;;;5019189;28;20203;-50
2022/08/18 06:51:31;;;;;;;20.20;15.63;;;20.10;99.90;;;;;;5019617;28;20692;-49
2022/08/18 06:54:25;;;;;;;19.37;16.23;;;20.50;99.90;;;;;;5018968;28;20318;-50
2022/08/18 06:56:54;;;;;;;21.37;16.20;;;20.80;99.90;;;;;;5019323;28;20601;-51
2022/08/18 06:59:28;;;;;;;19.63;15.73;;;20.80;99.90;;;;;;5018601;28;20203;-49
2022/08/18 07:02:01;;;;;;;17.23;11.93;;;20.80;99.90;;;;;;5018572;28;20844;-49
2022/08/18 07:05:13;;;;;;;16.40;11.83;;;20.80;99.90;;;;;;5014910;28;20216;-50
2022/08/18 07:07:42;;;;;;;18.80;13.40;;;21.20;99.90;;;;;;5020147;28;20290;-50
2022/08/18 07:10:14;;;;;;;17.00;13.63;;;21.40;99.90;;;;;;5019779;28;20230;-50
2022/08/18 07:12:41;;;;;;;11.93;9.37;;;21.60;99.90;;;;;;5019766;28;20710;-51
2022/08/18 07:15:11;;;;;;;12.70;9.70;;;21.70;99.90;;;;;;5018354;28;20260;-49
2022/08/18 07:17:38;;;;;;;12.57;9.03;;;21.90;99.90;;;;;;5019129;28;20222;-50
2022/08/18 07:20:24;;;;;;;11.27;9.80;;;21.80;99.90;;;;;;5019148;28;20212;-50
2022/08/18 07:23:03;;;;;;;12.10;10.67;;;22.10;99.90;;;;;;5018495;28;20208;-50
2022/08/18 07:25:41;;;;;;;14.67;11.13;;;22.00;99.90;;;;;;5019287;28;20212;-49
2022/08/18 07:28:29;;;;;;;13.43;9.93;;;22.10;99.90;;;;;;5018275;28;20211;-51
2022/08/18 07:31:13;;;;;;;12.80;11.43;;;22.10;99.90;;;;;;5018395;28;20662;-51
2022/08/18 07:33:54;;;;;;;14.80;10.93;;;21.70;99.90;;;;;;5019271;28;20233;-51
2022/08/18 07:36:24;;;;;;;11.93;9.80;;;21.50;99.90;;;;;;5018922;28;20664;-51
2022/08/18 07:39:02;;;;;;;13.20;10.07;;;21.70;99.90;;;;;;5018911;28;20628;-50
2022/08/18 07:41:56;;;;;;;10.03;9.03;;;21.60;99.90;;;;;;5013216;28;20216;-50
2022/08/18 07:44:33;;;;;;;12.40;8.97;;;21.80;99.90;;;;;;5019138;28;20555;-50
2022/08/18 07:47:22;;;;;;;10.10;8.70;;;21.70;99.90;;;;;;5018204;28;20243;-50
2022/08/18 07:49:49;;;;;;;9.07;8.17;;;21.80;99.90;;;;;;5018968;28;20213;-50
2022/08/18 07:52:57;;;;;;;10.40;8.70;;;21.90;99.90;;;;;;5019421;28;20234;-50
2022/08/18 07:55:34;;;;;;;9.70;7.77;;;21.90;99.90;;;;;;5018185;28;20717;-51
2022/08/18 07:58:20;;;;;;;8.83;7.63;;;22.00;99.90;;;;;;5019065;28;20283;-50
2022/08/18 08:01:01;;;;;;;9.93;7.70;;;22.20;99.90;;;;;;5034120;28;20609;-50
2022/08/18 08:03:58;;;;;;;8.17;7.37;;;22.10;99.90;;;;;;5018333;28;20586;-51
2022/08/18 08:06:32;;;;;;;9.07;6.83;;;22.10;99.90;;;;;;5025328;28;20666;-51
2022/08/18 08:08:58;;;;;;;9.40;7.67;;;22.10;99.90;;;;;;5017140;28;20209;-50
2022/08/18 08:11:55;;;;;;;8.70;7.13;;;22.10;99.90;;;;;;5020264;28;20207;-50
2022/08/18 08:14:41;;;;;;;10.73;7.57;;;22.00;99.90;;;;;;5019875;28;20255;-50
2022/08/18 08:17:32;;;;;;;9.07;6.23;;;22.10;99.90;;;;;;5021530;28;20540;-50
2022/08/18 08:20:39;;;;;;;8.27;6.10;;;21.80;99.90;;;;;;5021768;28;20204;-50
2022/08/18 08:23:24;;;;;;;7.60;6.90;;;21.70;99.90;;;;;;5020393;28;20204;-51
2022/08/18 08:26:14;;;;;;;9.67;6.67;;;21.70;99.90;;;;;;5022122;28;20271;-50
2022/08/18 08:28:46;;;;;;;7.47;6.67;;;22.00;99.90;;;;;;5021449;28;20267;-50
2022/08/18 08:31:33;;;;;;;8.93;6.10;;;22.10;99.90;;;;;;5021692;28;20296;-51
2022/08/18 08:34:34;;;;;;;8.33;6.43;;;22.60;99.90;;;;;;5021499;28;20203;-50
2022/08/18 08:37:03;;;;;;;8.17;6.77;;;22.70;99.90;;;;;;5021755;28;20727;-50
2022/08/18 08:39:37;;;;;;;10.67;7.13;;;22.90;99.90;;;;;;5021296;28;20280;-51
2022/08/18 08:42:48;;;;;;;8.33;7.03;;;23.10;99.90;;;;;;5021891;28;20257;-50
2022/08/18 08:45:36;;;;;;;7.20;5.77;;;23.60;99.90;;;;;;5021695;28;20659;-50
2022/08/18 08:48:19;;;;;;;6.40;5.70;;;23.10;99.90;;;;;;5020767;28;20211;-50
2022/08/18 08:50:53;;;;;;;8.90;5.70;;;23.60;99.90;;;;;;5021731;28;20558;-50
2022/08/18 08:53:26;;;;;;;7.73;5.93;;;23.80;99.90;;;;;;5053181;28;20629;-50
2022/08/18 08:55:57;;;;;;;8.30;6.80;;;23.80;99.90;;;;;;5021321;28;20326;-51
2022/08/18 08:58:57;;;;;;;9.33;7.07;;;24.00;99.90;;;;;;5022184;28;20713;-50
2022/08/18 09:01:33;;;;;;;8.03;7.27;;;23.70;99.90;;;;;;5020663;28;20248;-51
2022/08/18 09:04:05;;;;;;;9.43;8.20;;;23.50;99.90;;;;;;5019198;28;20201;-51
2022/08/18 09:06:51;;;;;;;9.60;8.10;;;23.40;99.90;;;;;;5021453;28;20555;-50
2022/08/18 09:09:56;;;;;;;8.63;7.73;;;23.30;99.90;;;;;;5021114;28;20238;-51
2022/08/18 09:12:43;;;;;;;8.00;7.20;;;23.20;99.90;;;;;;5003021;28;20366;-50
2022/08/18 09:15:41;;;;;;;12.33;7.77;;;23.10;99.90;;;;;;5019799;28;20236;-50
2022/08/18 09:18:15;;;;;;;8.73;7.30;;;23.10;99.90;;;;;;5020049;28;20626;-54
2022/08/18 09:21:04;;;;;;;9.37;8.27;;;23.60;99.90;;;;;;5021065;28;20214;-50
2022/08/18 09:23:41;;;;;;;11.53;10.33;;;23.80;99.90;;;;;;5020394;28;20570;-51
2022/08/18 09:26:30;;;;;;;12.03;10.83;;;23.50;99.90;;;;;;5019067;28;20741;-51
2022/08/18 09:29:15;;;;;;;12.47;11.37;;;23.60;99.90;;;;;;5020629;28;20655;-51
2022/08/18 09:31:44;;;;;;;14.73;11.40;;;23.50;99.90;;;;;;5020887;28;20719;-52
2022/08/18 09:34:42;;;;;;;12.63;11.37;;;23.20;99.90;;;;;;5020696;28;20212;-52
2022/08/18 09:37:22;;;;;;;12.97;11.70;;;23.20;99.90;;;;;;5020585;28;20208;-52
2022/08/18 09:43:30;;;;;;;12.13;11.13;;;23.30;99.90;;;;;;5020044;28;20304;-51
2022/08/18 09:45:59;;;;;;;11.87;10.77;;;23.50;99.90;;;;;;5020336;28;20305;-51
2022/08/18 09:48:35;;;;;;;12.73;11.63;;;24.10;99.90;;;;;;5020109;28;20306;-50
2022/08/18 09:51:15;;;;;;;13.27;11.93;;;24.10;99.90;;;;;;5021056;28;20212;-51
2022/08/18 09:53:51;;;;;;;17.03;12.67;;;24.00;99.90;;;;;;5017333;28;20227;-50
2022/08/18 09:56:48;;;;;;;14.83;13.50;;;24.50;99.90;;;;;;5019716;28;20211;-51
2022/08/18 09:59:33;;;;;;;13.37;12.17;;;24.70;99.90;;;;;;5019557;28;20207;-51
2022/08/18 10:02:31;;;;;;;14.90;13.63;;;24.10;99.90;;;;;;5017840;28;20277;-51
2022/08/18 10:05:16;;;;;;;16.07;14.57;;;23.70;99.90;;;;;;5017220;28;20217;-51
2022/08/18 10:08:15;;;;;;;14.30;12.90;;;23.70;99.90;;;;;;5015136;28;20212;-49
2022/08/18 10:10:57;;;;;;;13.20;11.73;;;24.10;99.90;;;;;;5020078;28;20211;-51
2022/08/18 10:14:11;;;;;;;13.23;9.93;;;24.30;99.90;;;;;;5020292;28;20265;-50
2022/08/18 10:16:49;;;;;;;11.87;10.67;;;24.10;99.90;;;;;;5019659;28;20291;-52
2022/08/18 10:20:08;;;;;;;10.53;9.63;;;24.60;99.90;;;;;;5019340;28;20200;-50
2022/08/18 10:22:53;;;;;;;10.80;9.77;;;24.50;99.90;;;;;;5010776;28;20700;-51
2022/08/18 10:25:45;;;;;;;11.23;9.93;;;24.60;99.90;;;;;;5019555;28;20242;-51
2022/08/18 10:28:52;;;;;;;10.00;9.10;;;24.60;99.90;;;;;;5018480;28;20208;-52
2022/08/18 10:31:19;;;;;;;9.83;8.97;;;24.60;99.90;;;;;;5018521;28;20693;-51
2022/08/18 10:34:10;;;;;;;10.93;9.90;;;24.70;99.90;;;;;;5017447;28;20462;-54
2022/08/18 10:36:44;;;;;;;10.27;9.27;;;24.80;99.90;;;;;;5019766;28;20954;-54
2022/08/18 10:39:18;;;;;;;9.77;8.97;;;25.00;99.90;;;;;;5018632;28;20212;-53
2022/08/18 10:42:13;;;;;;;9.13;8.40;;;25.10;99.90;;;;;;5020154;28;20214;-52
2022/08/18 10:44:44;;;;;;;9.27;8.37;;;25.50;99.90;;;;;;5017619;28;20236;-52
2022/08/18 10:47:28;;;;;;;6.27;5.03;;;25.30;99.90;;;;;;5018922;28;20250;-53
2022/08/18 10:50:07;;;;;;;6.40;5.80;;;25.20;99.90;;;;;;5019085;28;20267;-53
2022/08/18 10:52:55;;;;;;;5.53;5.10;;;25.20;99.90;;;;;;5019480;28;20244;-53
2022/08/18 10:55:59;;;;;;;4.60;4.00;;;25.20;99.90;;;;;;5018535;28;20319;-53
2022/08/18 10:58:39;;;;;;;5.00;3.80;;;25.40;99.90;;;;;;5020930;28;20204;-53
2022/08/18 11:01:38;;;;;;;4.63;4.23;;;25.90;99.90;;;;;;5018025;28;20247;-50
2022/08/18 11:04:07;;;;;;;6.27;4.70;;;25.70;99.90;;;;;;5019412;28;20207;-52
2022/08/18 11:06:46;;;;;;;5.93;5.43;;;25.50;99.90;;;;;;5018645;28;20212;-53
2022/08/18 11:09:25;;;;;;;6.33;5.73;;;25.20;99.90;;;;;;5050446;28;20201;-53
2022/08/18 11:11:55;;;;;;;7.10;6.40;;;25.00;99.90;;;;;;5018316;28;20212;-52
2022/08/18 11:14:52;;;;;;;6.17;5.47;;;24.70;99.90;;;;;;5019669;28;20298;-52
2022/08/18 11:17:46;;;;;;;7.30;6.23;;;24.80;99.90;;;;;;5013524;28;20216;-53
2022/08/18 11:20:16;;;;;;;6.40;5.80;;;24.80;99.90;;;;;;5018865;28;20259;-53
2022/08/18 11:22:59;;;;;;;5.83;5.30;;;24.90;99.90;;;;;;5019155;28;20205;-52
2022/08/18 11:25:34;;;;;;;7.43;6.73;;;24.80;99.90;;;;;;5018690;28;20216;-53
2022/08/18 11:28:13;;;;;;;7.30;6.60;;;24.80;99.90;;;;;;5017237;28;20217;-52
2022/08/18 11:30:46;;;;;;;7.10;6.37;;;24.80;99.90;;;;;;5018875;28;20216;-53
2022/08/18 11:33:18;;;;;;;6.33;5.60;;;25.20;99.90;;;;;;5019230;28;20217;-52
2022/08/18 11:35:56;;;;;;;6.43;5.70;;;25.20;99.90;;;;;;5018638;28;20298;-51
2022/08/18 11:38:27;;;;;;;6.07;5.43;;;25.10;99.90;;;;;;5019175;28;20683;-51
2022/08/18 11:41:15;;;;;;;5.90;5.40;;;24.80;99.90;;;;;;5018729;28;20291;-53
2022/08/18 11:43:44;;;;;;;5.33;4.73;;;24.90;99.90;;;;;;5019349;28;20204;-51
2022/08/18 11:46:19;;;;;;;5.43;4.80;;;24.90;99.90;;;;;;5015331;28;20300;-51
2022/08/18 11:48:55;;;;;;;6.57;4.00;;;25.70;99.90;;;;;;5022107;28;20219;-52
2022/08/18 11:51:30;;;;;;;4.00;3.53;;;28.90;99.90;;;;;;5017730;28;20205;-52
2022/08/18 11:54:12;;;;;;;3.40;3.10;;;28.70;99.90;;;;;;5021872;28;20235;-53
2022/08/18 11:56:39;;;;;;;4.13;3.73;;;28.90;99.90;;;;;;5022615;28;20271;-53
2022/08/18 11:59:26;;;;;;;4.30;3.90;;;27.60;99.90;;;;;;5022676;28;20287;-53
2022/08/18 12:02:21;;;;;;;3.97;3.57;;;26.90;99.90;;;;;;5020975;28;20256;-55
2022/08/18 12:04:52;;;;;;;4.88;4.38;;;26.50;99.90;;;;;;5023086;28;20291;-54
2022/08/18 12:07:32;;;;;;;4.67;4.07;;;26.10;99.90;;;;;;5021962;28;20204;-54
2022/08/18 12:10:18;;;;;;;5.23;4.10;;;26.00;99.90;;;;;;5021745;28;20234;-53
2022/08/18 12:12:53;;;;;;;5.95;3.80;;;25.70;99.90;;;;;;5022339;28;20316;-53
2022/08/18 12:15:33;;;;;;;4.38;3.40;;;25.40;99.90;;;;;;5037031;28;20687;-52
2022/08/18 12:18:16;;;;;;;6.17;3.77;;;25.70;99.90;;;;;;5021870;28;20201;-52
2022/08/18 12:20:58;;;;;;;7.67;4.50;;;25.90;99.90;;;;;;5022099;28;20209;-54
2022/08/18 12:23:30;;;;;;;6.23;4.13;;;25.50;99.90;;;;;;5022574;28;20209;-53
2022/08/18 12:26:10;;;;;;;4.57;3.67;;;25.50;99.90;;;;;;5020687;28;20216;-52
2022/08/18 12:28:57;;;;;;;4.50;4.10;;;25.50;99.90;;;;;;5021741;28;20305;-52
2022/08/18 12:31:45;;;;;;;4.73;3.80;;;25.60;99.90;;;;;;5022262;28;20216;-52
2022/08/18 12:34:16;;;;;;;5.17;3.87;;;25.30;99.90;;;;;;5020798;28;20327;-52
2022/08/18 12:36:51;;;;;;;4.10;3.70;;;25.20;99.90;;;;;;5021530;28;20208;-53
2022/08/18 12:39:18;;;;;;;7.27;3.70;;;25.00;99.90;;;;;;5022435;28;20204;-51
2022/08/18 12:41:46;;;;;;;7.80;4.73;;;24.80;99.90;;;;;;5021619;28;20250;-52
2022/08/18 12:44:12;;;;;;;8.30;4.60;;;24.70;99.90;;;;;;5021125;28;20252;-53
2022/08/18 12:46:40;;;;;;;5.63;4.37;;;24.80;99.90;;;;;;5021367;28;20213;-52
2022/08/18 12:49:27;;;;;;;4.50;4.10;;;24.80;99.90;;;;;;5021886;28;20295;-53
2022/08/18 12:51:55;;;;;;;5.90;4.60;;;25.00;99.90;;;;;;5022226;28;20231;-52
2022/08/18 12:54:24;;;;;;;4.13;3.83;;;25.30;99.90;;;;;;5021047;28;20300;-52
2022/08/18 12:56:53;;;;;;;4.80;4.30;;;25.20;99.90;;;;;;5020743;28;20277;-52
2022/08/18 12:59:22;;;;;;;4.00;3.60;;;25.10;99.90;;;;;;5014979;28;20245;-52
2022/08/18 13:01:50;;;;;;;6.50;4.90;;;25.40;99.90;;;;;;5019324;28;20574;-53
2022/08/18 13:04:24;;;;;;;5.73;4.33;;;25.30;99.90;;;;;;5020962;28;20665;-52
2022/08/18 13:07:14;;;;;;;4.50;4.10;;;25.20;99.90;;;;;;5020556;28;20206;-52
2022/08/18 13:09:44;;;;;;;4.73;4.33;;;25.50;99.90;;;;;;5020915;28;20214;-52
2022/08/18 13:12:20;;;;;;;5.00;4.40;;;25.50;99.90;;;;;;5020268;28;20680;-52
2022/08/18 13:14:49;;;;;;;4.13;3.73;;;25.50;99.90;;;;;;5020908;28;20249;-51
2022/08/18 13:17:19;;;;;;;4.87;3.90;;;25.80;99.90;;;;;;5020505;28;20204;-53
2022/08/18 13:19:59;;;;;;;7.37;4.37;;;26.10;99.90;;;;;;5021506;28;20204;-50
2022/08/18 13:22:26;;;;;;;4.87;4.47;;;26.30;99.90;;;;;;5021073;28;20347;-51
2022/08/18 13:24:58;;;;;;;3.90;3.13;;;26.60;99.90;;;;;;5021334;28;20531;-52
2022/08/18 13:27:26;;;;;;;4.47;4.07;;;28.50;99.90;;;;;;5017726;28;20209;-52
2022/08/18 13:29:58;;;;;;;4.20;3.67;;;28.80;99.90;;;;;;5020707;28;20233;-51
2022/08/18 13:32:25;;;;;;;4.37;4.03;;;27.70;99.90;;;;;;5020838;28;20263;-53
2022/08/18 13:35:06;;;;;;;5.43;3.87;;;27.10;99.90;;;;;;5020576;28;20558;-53
2022/08/18 13:37:40;;;;;;;5.57;3.33;;;26.70;99.90;;;;;;5019622;28;20209;-53
2022/08/18 13:40:08;;;;;;;5.80;3.97;;;27.00;99.90;;;;;;5015637;28;20684;-53